Berlin — 9HA2295 — position and weather

sailwx.info

Track history (hours):
 
Tides and Currents Weather Stations Pressure Air Temp Water Temp Dewpoint Dewpoint Depression Visibility Wind Speed Wind Dir Waves Ship Positions

Berlin

Last reported at 2014-Sep-02 01:30 UTC. Time now 2014-Sep-02 02:13 UTC.
Position N 37°32' E 026°54'.

Length 140 m; draft 5 m.

Type: Passenger vessel. MMSI: 248277000.

Date/timePositionNaut miles runAvg speedWind from/ knotsBaromVisibWave heightAir tempDewpointWater temp
2014-Sep-02 01:30N 37°32' E 026°54'910.0
2014-Sep-02 00:33N 37°23' E 026°50'1010.4
2014-Sep-01 23:33N 37°13' E 026°55'1210.5
2014-Sep-01 22:25N 37°03' E 027°02'297 5.8
2014-Aug-30 19:26N 34°41' E 032°25'8 9.3
2014-Aug-30 18:33N 34°38' E 032°34'10 9.7
2014-Aug-30 17:33N 34°35' E 032°45'1110.8
2014-Aug-30 16:33N 34°32' E 032°58'8 8.3
2014-Aug-30 15:33N 34°39' E 033°03'2 1.7
2014-Aug-30 14:32N 34°39' E 033°01'0 0.0
2014-Aug-30 13:32N 34°39' E 033°01'0 0.0
2014-Aug-30 12:31N 34°39' E 033°01'0 0.0
2014-Aug-30 11:31N 34°39' E 033°01'0 0.0
2014-Aug-30 10:31N 34°39' E 033°01'0 0.0
2014-Aug-30 09:31N 34°39' E 033°01'0 0.0
2014-Aug-30 08:31N 34°39' E 033°01'0 0.0
2014-Aug-30 07:31N 34°39' E 033°01'0 0.0
2014-Aug-30 06:33N 34°39' E 033°01'0 0.0
2014-Aug-30 05:33N 34°39' E 033°01'0 0.1
2014-Aug-30 04:33N 34°39' E 033°01'8 7.6
2014-Aug-30 03:34N 34°34' E 033°08'10 9.6
2014-Aug-30 02:33N 34°31' E 032°56'9 9.1
2014-Aug-30 01:32N 34°32' E 032°45'9 9.5
2014-Aug-30 00:33N 34°34' E 032°34'10 9.9
2014-Aug-29 23:33N 34°36' E 032°22'14 9.7
2014-Aug-29 22:07N 34°35' E 032°05'29511.4
2014-Aug-28 20:12N 35°25' E 026°11'1012.1
2014-Aug-28 19:22N 35°25' E 025°58'1212.1
2014-Aug-28 18:23N 35°23' E 025°44'1012.1
2014-Aug-28 17:33N 35°23' E 025°31'18 8.5
2014-Aug-28 15:25N 35°21' E 025°09'0 0.0
2014-Aug-28 12:26N 35°21' E 025°09'0 0.0
2014-Aug-28 11:08N 35°21' E 025°09'0 0.0
2014-Aug-28 10:32N 35°21' E 025°09'0 0.0
2014-Aug-28 09:15N 35°21' E 025°09'0 0.0
2014-Aug-28 08:33N 35°21' E 025°09'0 0.0
2014-Aug-28 06:32N 35°21' E 025°09'0 0.0
2014-Aug-28 05:33N 35°21' E 025°09'0 0.0
2014-Aug-28 04:33N 35°21' E 025°09'0 0.0
2014-Aug-28 03:33N 35°21' E 025°09'7 6.8
2014-Aug-28 02:33N 35°25' E 025°03'3611.1
2014-Aug-27 23:20N 35°41' E 024°23'1111.6
2014-Aug-27 22:21N 35°46' E 024°11'1011.9
2014-Aug-27 21:33N 35°49' E 023°60'1411.7
2014-Aug-27 20:22N 35°50' E 023°43'1012.4
2014-Aug-27 19:33N 35°46' E 023°31'38413.7
2014-Aug-26 15:34N 35°56' E 015°38'1413.7
2014-Aug-26 14:32N 35°54' E 015°21'1414.0
2014-Aug-26 13:33N 35°55' E 015°04'1413.8
2014-Aug-26 12:33N 35°58' E 014°47'1312.9
2014-Aug-26 11:33N 35°54' E 014°32'1 0.1
2014-Aug-26 04:15N 35°54' E 014°31'5 7.6
2014-Aug-26 03:33N 35°59' E 014°31'1313.1
2014-Aug-26 02:33N 36°09' E 014°20'1313.1
2014-Aug-26 01:32N 36°19' E 014°09'1111.6
2014-Aug-26 00:33N 36°24' E 013°57'1211.9
2014-Aug-25 23:33N 36°28' E 013°43'1312.9
2014-Aug-25 22:33N 36°37' E 013°32'1412.8
2014-Aug-25 21:29N 36°47' E 013°20'369 8.5
2014-Aug-24 02:11N 42°31' E 010°25'914.0
2014-Aug-24 01:32N 42°37' E 010°15'3113.7
2014-Aug-23 23:16N 43°05' E 009°58'1014.5
2014-Aug-23 22:33N 43°14' E 009°52'1413.5
2014-Aug-23 21:33N 43°26' E 009°44'1312.8
2014-Aug-23 20:34N 43°36' E 009°33'1413.9
2014-Aug-23 19:34N 43°48' E 009°23'35 2.2
2014-Aug-23 03:34N 44°15' E 008°52'1313.1
2014-Aug-23 02:33N 44°06' E 008°38'1413.5
2014-Aug-23 01:33N 43°57' E 008°25'  
Track history (hours):
 
Tides and Currents Weather Stations Pressure Air Temp Water Temp Dewpoint Dewpoint Depression Visibility Wind Speed Wind Dir Waves Ship Positions

Berlin

Last reported at 2014-Sep-02 01:30 UTC. Time now 2014-Sep-02 02:13 UTC.
Position N 37°32' E 026°54'.

Length 140 m; draft 5 m.

Type: Passenger vessel. MMSI: 248277000.

Date/timePositionNaut miles runAvg speedWind from/ knotsBaromVisibWave heightAir tempDewpointWater temp
2014-Sep-02 01:30N 37°32' E 026°54'910.0
2014-Sep-02 00:33N 37°23' E 026°50'1010.4
2014-Sep-01 23:33N 37°13' E 026°55'1210.5
2014-Sep-01 22:25N 37°03' E 027°02'297 5.8
2014-Aug-30 19:26N 34°41' E 032°25'8 9.3
2014-Aug-30 18:33N 34°38' E 032°34'10 9.7
2014-Aug-30 17:33N 34°35' E 032°45'1110.8
2014-Aug-30 16:33N 34°32' E 032°58'8 8.3
2014-Aug-30 15:33N 34°39' E 033°03'2 1.7
2014-Aug-30 14:32N 34°39' E 033°01'0 0.0
2014-Aug-30 13:32N 34°39' E 033°01'0 0.0
2014-Aug-30 12:31N 34°39' E 033°01'0 0.0
2014-Aug-30 11:31N 34°39' E 033°01'0 0.0
2014-Aug-30 10:31N 34°39' E 033°01'0 0.0
2014-Aug-30 09:31N 34°39' E 033°01'0 0.0
2014-Aug-30 08:31N 34°39' E 033°01'0 0.0
2014-Aug-30 07:31N 34°39' E 033°01'0 0.0
2014-Aug-30 06:33N 34°39' E 033°01'0 0.0
2014-Aug-30 05:33N 34°39' E 033°01'0 0.1
2014-Aug-30 04:33N 34°39' E 033°01'8 7.6
2014-Aug-30 03:34N 34°34' E 033°08'10 9.6
2014-Aug-30 02:33N 34°31' E 032°56'9 9.1
2014-Aug-30 01:32N 34°32' E 032°45'9 9.5
2014-Aug-30 00:33N 34°34' E 032°34'10 9.9
2014-Aug-29 23:33N 34°36' E 032°22'14 9.7
2014-Aug-29 22:07N 34°35' E 032°05'29511.4
2014-Aug-28 20:12N 35°25' E 026°11'1012.1
2014-Aug-28 19:22N 35°25' E 025°58'1212.1
2014-Aug-28 18:23N 35°23' E 025°44'1012.1
2014-Aug-28 17:33N 35°23' E 025°31'18 8.5
2014-Aug-28 15:25N 35°21' E 025°09'0 0.0
2014-Aug-28 12:26N 35°21' E 025°09'0 0.0
2014-Aug-28 11:08N 35°21' E 025°09'0 0.0
2014-Aug-28 10:32N 35°21' E 025°09'0 0.0
2014-Aug-28 09:15N 35°21' E 025°09'0 0.0
2014-Aug-28 08:33N 35°21' E 025°09'0 0.0
2014-Aug-28 06:32N 35°21' E 025°09'0 0.0
2014-Aug-28 05:33N 35°21' E 025°09'0 0.0
2014-Aug-28 04:33N 35°21' E 025°09'0 0.0
2014-Aug-28 03:33N 35°21' E 025°09'7 6.8
2014-Aug-28 02:33N 35°25' E 025°03'3611.1
2014-Aug-27 23:20N 35°41' E 024°23'1111.6
2014-Aug-27 22:21N 35°46' E 024°11'1011.9
2014-Aug-27 21:33N 35°49' E 023°60'1411.7
2014-Aug-27 20:22N 35°50' E 023°43'1012.4
2014-Aug-27 19:33N 35°46' E 023°31'38413.7
2014-Aug-26 15:34N 35°56' E 015°38'1413.7
2014-Aug-26 14:32N 35°54' E 015°21'1414.0
2014-Aug-26 13:33N 35°55' E 015°04'1413.8
2014-Aug-26 12:33N 35°58' E 014°47'1312.9
2014-Aug-26 11:33N 35°54' E 014°32'1 0.1
2014-Aug-26 04:15N 35°54' E 014°31'5 7.6
2014-Aug-26 03:33N 35°59' E 014°31'1313.1
2014-Aug-26 02:33N 36°09' E 014°20'1313.1
2014-Aug-26 01:32N 36°19' E 014°09'1111.6
2014-Aug-26 00:33N 36°24' E 013°57'1211.9
2014-Aug-25 23:33N 36°28' E 013°43'1312.9
2014-Aug-25 22:33N 36°37' E 013°32'1412.8
2014-Aug-25 21:29N 36°47' E 013°20'369 8.5
2014-Aug-24 02:11N 42°31' E 010°25'914.0
2014-Aug-24 01:32N 42°37' E 010°15'3113.7
2014-Aug-23 23:16N 43°05' E 009°58'1014.5
2014-Aug-23 22:33N 43°14' E 009°52'1413.5
2014-Aug-23 21:33N 43°26' E 009°44'1312.8
2014-Aug-23 20:34N 43°36' E 009°33'1413.9
2014-Aug-23 19:34N 43°48' E 009°23'35 2.2
2014-Aug-23 03:34N 44°15' E 008°52'1313.1
2014-Aug-23 02:33N 44°06' E 008°38'1413.5
2014-Aug-23 01:33N 43°57' E 008°25'  

Dump ship's entire track history